Time;durP1;ratioP1;P1;durP2;ratioP2;P2;SDS_P1;SDS_P2;PMS_P1;PMS_P2;Temp;Humidity;BMP_temperature;BMP_pressure;BME280_temperature;BME280_humidity;BME280_pressure;Samples;Min_cycle;Max_cycle;Signal;HPM_P1;HPM_P2
2023/10/27 00:01:33;;;;;;;31.95;18.10;;;9.40;99.90;;;;;;5073408;28;20131;-26
2023/10/27 00:03:59;;;;;;;32.38;19.05;;;9.30;99.90;;;;;;5074316;28;20045;-28
2023/10/27 00:06:25;;;;;;;26.73;16.90;;;9.30;99.90;;;;;;5074267;28;20499;-26
2023/10/27 00:08:50;;;;;;;28.65;17.35;;;9.20;99.90;;;;;;5074423;28;20386;-26
2023/10/27 00:11:16;;;;;;;28.13;17.92;;;9.30;99.90;;;;;;5074510;28;20044;-26
2023/10/27 00:13:42;;;;;;;25.67;17.48;;;9.20;99.90;;;;;;5074801;28;20090;-26
2023/10/27 00:16:10;;;;;;;32.33;18.80;;;9.10;99.90;;;;;;5074188;28;20047;-26
2023/10/27 00:18:36;;;;;;;30.90;18.70;;;9.10;99.90;;;;;;5073117;28;20088;-26
2023/10/27 00:21:03;;;;;;;31.05;18.83;;;9.10;99.90;;;;;;5073076;28;20058;-27
2023/10/27 00:23:29;;;;;;;33.10;18.30;;;9.00;99.90;;;;;;5074061;28;20040;-26
2023/10/27 00:25:54;;;;;;;31.98;17.95;;;9.00;99.90;;;;;;5074535;28;20496;-27
2023/10/27 00:28:20;;;;;;;30.38;18.05;;;9.00;99.90;;;;;;5073535;28;20048;-27
2023/10/27 00:30:46;;;;;;;29.25;18.73;;;9.00;99.90;;;;;;5073080;28;20136;-26
2023/10/27 00:33:12;;;;;;;34.08;19.73;;;9.00;99.90;;;;;;5073605;28;20044;-26
2023/10/27 00:35:37;;;;;;;33.33;19.63;;;9.00;99.90;;;;;;5072720;28;20055;-26
2023/10/27 00:38:03;;;;;;;36.03;19.88;;;9.10;99.90;;;;;;5073852;28;20443;-27
2023/10/27 00:40:29;;;;;;;35.10;19.95;;;9.00;99.90;;;;;;5073300;28;20135;-26
2023/10/27 00:42:58;;;;;;;32.22;19.65;;;9.10;99.90;;;;;;5074389;28;20090;-26
2023/10/27 00:45:25;;;;;;;32.45;20.73;;;9.10;99.90;;;;;;5073772;28;20048;-27
2023/10/27 00:47:51;;;;;;;34.83;20.58;;;9.10;99.90;;;;;;5073729;28;20040;-27
2023/10/27 00:50:17;;;;;;;38.17;22.20;;;9.10;99.90;;;;;;5073688;28;20040;-28
2023/10/27 00:52:42;;;;;;;31.60;19.75;;;9.20;99.90;;;;;;5072492;28;20044;-27
2023/10/27 00:55:09;;;;;;;35.42;18.75;;;9.10;99.90;;;;;;5073892;28;20403;-26
2023/10/27 00:57:36;;;;;;;33.95;18.83;;;9.20;99.90;;;;;;5073269;28;20379;-26
2023/10/27 01:00:04;;;;;;;30.63;19.42;;;9.20;99.90;;;;;;5072643;28;20048;-27
2023/10/27 01:02:30;;;;;;;33.05;18.20;;;9.20;99.90;;;;;;5073569;28;20094;-26
2023/10/27 01:04:56;;;;;;;29.60;17.58;;;9.20;99.90;;;;;;5073449;28;20052;-26
2023/10/27 01:07:23;;;;;;;26.00;17.33;;;9.20;99.90;;;;;;5073999;28;20050;-27
2023/10/27 01:09:49;;;;;;;23.70;14.93;;;9.20;99.90;;;;;;5073461;28;20047;-26
2023/10/27 01:12:15;;;;;;;20.00;13.32;;;9.20;99.90;;;;;;5073711;28;20060;-27
2023/10/27 01:14:41;;;;;;;21.77;14.10;;;9.20;99.90;;;;;;5073511;28;20052;-26
2023/10/27 01:17:07;;;;;;;21.52;13.73;;;9.20;99.90;;;;;;5072291;28;20478;-26
2023/10/27 01:19:35;;;;;;;21.42;13.77;;;9.20;99.90;;;;;;5056060;28;20522;-27
2023/10/27 01:22:02;;;;;;;21.73;13.68;;;9.20;99.90;;;;;;5073373;28;20156;-26
2023/10/27 01:24:28;;;;;;;20.25;13.98;;;9.20;99.90;;;;;;5073385;28;20086;-27
2023/10/27 01:26:55;;;;;;;22.08;15.10;;;9.20;99.90;;;;;;5073896;28;20079;-26
2023/10/27 01:29:22;;;;;;;20.75;14.27;;;9.20;99.90;;;;;;5072087;28;20040;-26
2023/10/27 01:31:48;;;;;;;21.60;15.13;;;9.20;99.90;;;;;;5073276;28;20076;-26
2023/10/27 01:34:14;;;;;;;19.85;15.18;;;9.20;99.90;;;;;;5073255;28;20079;-27
2023/10/27 01:36:40;;;;;;;23.30;15.43;;;9.20;99.90;;;;;;5073819;28;20048;-26
2023/10/27 01:39:07;;;;;;;23.38;15.93;;;9.20;99.90;;;;;;5072905;28;20082;-27
2023/10/27 01:41:33;;;;;;;25.80;15.43;;;9.20;99.90;;;;;;5073067;28;20048;-26
2023/10/27 01:43:59;;;;;;;26.52;15.60;;;9.20;99.90;;;;;;5073051;28;20523;-26
2023/10/27 01:46:25;;;;;;;23.77;15.38;;;9.20;99.90;;;;;;5072852;28;20407;-27
2023/10/27 01:48:50;;;;;;;23.23;15.90;;;9.20;99.90;;;;;;5072763;28;20041;-27
2023/10/27 01:51:16;;;;;;;24.50;15.75;;;9.20;99.90;;;;;;5075359;28;20052;-27
2023/10/27 01:53:42;;;;;;;24.98;16.23;;;9.20;99.90;;;;;;5077668;28;20051;-26
2023/10/27 01:56:08;;;;;;;27.92;16.60;;;9.20;99.90;;;;;;5075842;28;20449;-26
2023/10/27 01:58:34;;;;;;;23.38;15.32;;;9.20;99.90;;;;;;5076737;28;20041;-27
2023/10/27 02:01:00;;;;;;;26.38;16.83;;;9.20;99.90;;;;;;5076966;28;20084;-26
2023/10/27 02:03:26;;;;;;;26.98;17.85;;;9.20;99.90;;;;;;5076746;28;20036;-28
2023/10/27 02:05:52;;;;;;;28.42;17.70;;;9.20;99.90;;;;;;5076595;28;20052;-26
2023/10/27 02:08:17;;;;;;;29.42;18.08;;;9.20;99.90;;;;;;5076169;28;20133;-26
2023/10/27 02:10:44;;;;;;;32.42;18.98;;;9.20;99.90;;;;;;5076494;28;20048;-27
2023/10/27 02:13:09;;;;;;;30.40;18.60;;;9.10;99.90;;;;;;5076886;28;20061;-26
2023/10/27 02:15:35;;;;;;;31.92;19.08;;;9.20;99.90;;;;;;5076144;28;20055;-27
2023/10/27 02:18:01;;;;;;;32.63;19.23;;;9.00;99.90;;;;;;5076619;28;20043;-26
2023/10/27 02:20:29;;;;;;;32.22;19.17;;;9.00;99.90;;;;;;5076380;28;20067;-26
2023/10/27 02:22:55;;;;;;;35.15;18.73;;;8.90;99.90;;;;;;5075592;28;20470;-26
2023/10/27 02:25:21;;;;;;;33.55;19.45;;;8.80;99.90;;;;;;5076850;28;20056;-26
2023/10/27 02:27:47;;;;;;;32.53;19.58;;;8.80;99.90;;;;;;5076780;28;20059;-26
2023/10/27 02:30:13;;;;;;;36.42;20.20;;;8.70;99.90;;;;;;5076225;28;20056;-26
2023/10/27 02:32:39;;;;;;;39.13;20.75;;;8.70;99.90;;;;;;5075016;28;20045;-26
2023/10/27 02:35:05;;;;;;;38.13;21.10;;;8.70;99.90;;;;;;5076114;28;20055;-26
2023/10/27 02:37:30;;;;;;;37.13;20.10;;;8.70;99.90;;;;;;5076016;28;20048;-26
2023/10/27 02:39:56;;;;;;;39.33;21.60;;;8.70;99.90;;;;;;5074754;28;20051;-26
2023/10/27 02:42:22;;;;;;;39.13;21.23;;;8.70;99.90;;;;;;5076528;28;20127;-26
2023/10/27 02:44:47;;;;;;;38.30;20.52;;;8.70;99.90;;;;;;5075906;28;20074;-26
2023/10/27 02:47:13;;;;;;;34.28;21.45;;;8.70;99.90;;;;;;5076690;28;20102;-26
2023/10/27 02:49:39;;;;;;;32.45;20.73;;;8.60;99.90;;;;;;5075760;28;20450;-26
2023/10/27 02:52:05;;;;;;;35.10;21.77;;;8.70;99.90;;;;;;5075614;28;20037;-26
2023/10/27 02:54:31;;;;;;;44.03;22.10;;;8.70;99.90;;;;;;5075717;28;20502;-26
2023/10/27 02:56:57;;;;;;;33.65;21.77;;;8.70;99.90;;;;;;5075678;28;20090;-26
2023/10/27 02:59:23;;;;;;;37.65;21.50;;;8.80;99.90;;;;;;5074708;28;20511;-26
2023/10/27 03:01:49;;;;;;;33.90;20.15;;;8.70;99.90;;;;;;5075348;28;20131;-26
2023/10/27 03:04:16;;;;;;;34.85;20.30;;;8.70;99.90;;;;;;5057800;28;20044;-26
2023/10/27 03:06:44;;;;;;;35.30;20.13;;;8.70;99.90;;;;;;5075957;28;20110;-26
2023/10/27 03:09:09;;;;;;;33.83;20.60;;;8.70;99.90;;;;;;5075363;28;20049;-26
2023/10/27 03:11:35;;;;;;;37.03;21.17;;;8.70;99.90;;;;;;5075284;28;20052;-26
2023/10/27 03:14:01;;;;;;;31.55;19.30;;;8.70;99.90;;;;;;5075979;28;20502;-26
2023/10/27 03:16:27;;;;;;;34.67;19.95;;;8.70;99.90;;;;;;5075290;28;20546;-26
2023/10/27 03:18:53;;;;;;;31.83;18.95;;;8.70;99.90;;;;;;5074132;28;20040;-26
2023/10/27 03:21:19;;;;;;;31.98;19.95;;;8.70;99.90;;;;;;5075204;28;20528;-26
2023/10/27 03:23:45;;;;;;;36.85;21.67;;;8.70;99.90;;;;;;5075991;28;20079;-26
2023/10/27 03:26:11;;;;;;;35.55;22.50;;;8.70;99.90;;;;;;5075091;28;20494;-26
2023/10/27 03:28:36;;;;;;;33.97;20.67;;;8.60;99.90;;;;;;5073899;28;20080;-26
2023/10/27 03:31:02;;;;;;;34.65;20.52;;;8.60;99.90;;;;;;5075081;28;20044;-26
2023/10/27 03:33:28;;;;;;;34.55;21.02;;;8.60;99.90;;;;;;5074961;28;20040;-26
2023/10/27 03:35:54;;;;;;;31.75;19.05;;;8.60;99.90;;;;;;5075690;28;20048;-26
2023/10/27 03:38:19;;;;;;;31.52;19.85;;;8.60;99.90;;;;;;5074572;28;20506;-26
2023/10/27 03:40:47;;;;;;;35.22;19.88;;;8.60;99.90;;;;;;5074743;28;20098;-26
2023/10/27 03:43:13;;;;;;;31.83;19.40;;;8.60;99.90;;;;;;5074739;28;20063;-26
2023/10/27 03:45:39;;;;;;;29.52;18.77;;;8.60;99.90;;;;;;5074726;28;20045;-26
2023/10/27 03:48:05;;;;;;;29.50;18.15;;;8.60;99.90;;;;;;5074644;28;20041;-26
2023/10/27 03:50:31;;;;;;;36.22;18.35;;;8.60;99.90;;;;;;5074585;28;20505;-26
2023/10/27 03:52:56;;;;;;;34.75;19.60;;;8.60;99.90;;;;;;5075164;28;20048;-26
2023/10/27 03:55:22;;;;;;;36.08;20.23;;;8.60;99.90;;;;;;5074582;28;20049;-26
2023/10/27 03:57:48;;;;;;;33.53;18.13;;;8.60;99.90;;;;;;5074452;28;20097;-26
2023/10/27 04:00:15;;;;;;;32.78;20.08;;;8.50;99.90;;;;;;5075045;28;20045;-26
2023/10/27 04:02:41;;;;;;;32.40;18.67;;;8.50;99.90;;;;;;5074378;28;20486;-26
2023/10/27 04:05:07;;;;;;;39.03;20.33;;;8.50;99.90;;;;;;5056722;28;20048;-27
2023/10/27 04:07:33;;;;;;;34.53;19.13;;;8.50;99.90;;;;;;5075042;28;20425;-26
2023/10/27 04:09:58;;;;;;;36.97;19.63;;;8.50;99.90;;;;;;5074544;28;20386;-26
2023/10/27 04:12:24;;;;;;;35.33;19.48;;;8.60;99.90;;;;;;5074476;28;20062;-26
2023/10/27 04:14:50;;;;;;;34.40;19.13;;;8.60;99.90;;;;;;5073378;28;20094;-26
2023/10/27 04:17:16;;;;;;;35.88;19.92;;;8.50;99.90;;;;;;5074162;28;20044;-26
2023/10/27 04:19:44;;;;;;;35.60;19.65;;;8.60;99.90;;;;;;5074162;28;20123;-26
2023/10/27 04:22:11;;;;;;;36.55;20.33;;;8.60;99.90;;;;;;5074006;28;20478;-26
2023/10/27 04:24:37;;;;;;;35.33;20.73;;;8.60;99.90;;;;;;5073079;28;20081;-26
2023/10/27 04:27:03;;;;;;;34.55;19.55;;;8.60;99.90;;;;;;5074033;28;20375;-26
2023/10/27 04:29:29;;;;;;;37.28;20.00;;;8.60;99.90;;;;;;5072674;28;20400;-26
2023/10/27 04:31:54;;;;;;;39.88;20.55;;;8.60;99.90;;;;;;5073904;28;20044;-26
2023/10/27 04:34:20;;;;;;;35.35;19.73;;;8.60;99.90;;;;;;5073862;28;20135;-26
2023/10/27 04:36:47;;;;;;;36.97;20.17;;;8.60;99.90;;;;;;5073841;28;20058;-26
2023/10/27 04:39:13;;;;;;;34.35;20.92;;;8.50;99.90;;;;;;5074355;28;20101;-26
2023/10/27 04:41:38;;;;;;;39.25;21.63;;;8.50;99.90;;;;;;5073703;28;20127;-26
2023/10/27 04:44:04;;;;;;;37.10;19.80;;;8.40;99.90;;;;;;5074089;28;20051;-26
2023/10/27 04:46:30;;;;;;;34.90;20.08;;;8.40;99.90;;;;;;5073731;28;20456;-27
2023/10/27 04:48:57;;;;;;;39.22;19.55;;;8.40;99.90;;;;;;5073640;28;20572;-26
2023/10/27 04:51:24;;;;;;;37.15;19.65;;;8.30;99.90;;;;;;5072733;28;20079;-27
2023/10/27 04:53:50;;;;;;;39.03;21.40;;;8.30;99.90;;;;;;5073686;28;20054;-27
2023/10/27 04:56:16;;;;;;;39.92;20.80;;;8.20;99.90;;;;;;5072173;28;20048;-26
2023/10/27 04:58:44;;;;;;;43.72;20.83;;;8.20;99.90;;;;;;5074177;28;20095;-26
2023/10/27 05:01:11;;;;;;;49.53;23.45;;;8.10;99.90;;;;;;5056015;28;20158;-27
2023/10/27 05:03:37;;;;;;;44.65;22.58;;;8.10;99.90;;;;;;5072622;28;20098;-28
2023/10/27 05:06:09;;;;;;;47.10;21.83;;;8.10;99.90;;;;;;5073439;28;20048;-26
2023/10/27 05:08:35;;;;;;;47.67;22.92;;;8.10;99.90;;;;;;5073542;28;20087;-26
2023/10/27 05:11:01;;;;;;;45.15;21.88;;;8.00;99.90;;;;;;5073544;28;20429;-26
2023/10/27 05:13:27;;;;;;;53.35;23.88;;;8.00;99.90;;;;;;5072089;28;20114;-27
2023/10/27 05:15:56;;;;;;;56.13;24.38;;;8.00;99.90;;;;;;5073393;28;20124;-27
2023/10/27 05:18:21;;;;;;;48.67;22.73;;;8.00;99.90;;;;;;5073401;28;20041;-26
2023/10/27 05:20:48;;;;;;;42.63;23.00;;;8.00;99.90;;;;;;5073395;28;20055;-26
2023/10/27 05:26:54;;;;;;;48.65;23.73;;;8.00;99.90;;;;;;5082391;28;20043;-26
2023/10/27 05:29:20;;;;;;;54.70;23.63;;;8.10;99.90;;;;;;5081777;28;20394;-26
2023/10/27 05:31:46;;;;;;;47.50;23.52;;;8.10;99.90;;;;;;5082950;28;20043;-27
2023/10/27 05:34:12;;;;;;;53.92;24.35;;;8.10;99.90;;;;;;5077154;28;20040;-26
2023/10/27 05:36:38;;;;;;;54.50;24.65;;;8.30;99.90;;;;;;5077175;28;20552;-26
2023/10/27 05:39:04;;;;;;;52.78;24.13;;;8.30;99.90;;;;;;5077657;28;20052;-26
2023/10/27 05:41:29;;;;;;;59.80;23.65;;;8.30;99.90;;;;;;5077098;28;20052;-26
2023/10/27 05:43:55;;;;;;;49.80;22.83;;;8.30;99.90;;;;;;5076960;28;20055;-26
2023/10/27 05:46:21;;;;;;;49.63;22.80;;;8.40;99.90;;;;;;5076996;28;20055;-26
2023/10/27 05:48:47;;;;;;;47.75;23.38;;;8.40;99.90;;;;;;5077212;28;20090;-26
2023/10/27 05:51:15;;;;;;;58.17;24.83;;;8.40;99.90;;;;;;5076940;28;20456;-26
2023/10/27 05:53:41;;;;;;;48.20;22.27;;;8.50;99.90;;;;;;5076862;28;20048;-26
2023/10/27 05:56:07;;;;;;;47.80;23.20;;;8.50;99.90;;;;;;5075643;28;20047;-26
2023/10/27 05:58:33;;;;;;;45.53;22.48;;;8.50;99.90;;;;;;5076732;28;20037;-26
2023/10/27 06:01:03;;;;;;;44.10;22.63;;;8.60;99.90;;;;;;5076723;28;20067;-26
2023/10/27 06:03:29;;;;;;;44.90;21.65;;;8.60;99.90;;;;;;5075733;28;20086;-27
2023/10/27 06:05:55;;;;;;;43.78;23.08;;;8.60;99.90;;;;;;5076543;28;20125;-26
2023/10/27 06:08:20;;;;;;;41.60;20.98;;;8.60;99.90;;;;;;5076493;28;20040;-27
2023/10/27 06:10:46;;;;;;;48.47;21.35;;;8.70;99.90;;;;;;5075535;28;20048;-26
2023/10/27 06:13:13;;;;;;;40.78;21.55;;;8.70;99.90;;;;;;5076150;28;20140;-26
2023/10/27 06:15:41;;;;;;;43.60;20.92;;;8.70;99.90;;;;;;5058879;28;20047;-26
2023/10/27 06:18:06;;;;;;;40.47;20.70;;;8.70;99.90;;;;;;5076891;28;20425;-26
2023/10/27 06:20:32;;;;;;;43.72;21.13;;;8.60;99.90;;;;;;5076393;28;20052;-26
2023/10/27 06:22:58;;;;;;;42.63;21.13;;;8.80;99.90;;;;;;5076314;28;20148;-26
2023/10/27 06:25:25;;;;;;;42.58;22.17;;;8.80;99.90;;;;;;5076884;28;20048;-26
2023/10/27 06:27:54;;;;;;;38.83;20.83;;;8.70;99.90;;;;;;5075161;28;20486;-26
2023/10/27 06:30:21;;;;;;;44.67;21.58;;;8.80;99.90;;;;;;5076086;28;20051;-26
2023/10/27 06:32:47;;;;;;;41.85;21.92;;;8.80;99.90;;;;;;5076190;28;20477;-26
2023/10/27 06:35:14;;;;;;;46.78;20.40;;;8.80;99.90;;;;;;5076132;28;20049;-27
2023/10/27 06:37:39;;;;;;;34.80;19.35;;;8.80;99.90;;;;;;5074209;28;20048;-26
2023/10/27 06:40:06;;;;;;;40.53;21.27;;;8.90;99.90;;;;;;5075981;28;20052;-26
2023/10/27 06:42:32;;;;;;;39.67;20.92;;;8.90;99.90;;;;;;5075505;28;20098;-26
2023/10/27 06:44:59;;;;;;;34.72;19.60;;;8.90;99.90;;;;;;5075898;28;20071;-26
2023/10/27 06:47:25;;;;;;;36.42;20.10;;;8.90;99.90;;;;;;5074920;28;20074;-27
2023/10/27 06:49:51;;;;;;;38.55;20.38;;;8.90;99.90;;;;;;5075759;28;20041;-26
2023/10/27 06:52:17;;;;;;;33.90;19.48;;;9.00;99.90;;;;;;5075787;28;20052;-26
2023/10/27 06:54:43;;;;;;;34.08;19.27;;;9.00;99.90;;;;;;5074581;28;20117;-26
2023/10/27 06:57:10;;;;;;;38.85;19.52;;;9.00;99.90;;;;;;5076034;28;20079;-26
2023/10/27 06:59:36;;;;;;;34.63;19.02;;;9.00;99.90;;;;;;5076131;28;20395;-27
2023/10/27 07:02:03;;;;;;;31.48;19.00;;;9.10;99.90;;;;;;5075509;28;20055;-26
2023/10/27 07:04:29;;;;;;;36.35;20.25;;;9.10;99.90;;;;;;5075447;28;20127;-26
2023/10/27 07:06:55;;;;;;;30.17;19.27;;;9.10;99.90;;;;;;5057726;28;20045;-26
2023/10/27 07:09:20;;;;;;;32.08;17.60;;;9.20;99.90;;;;;;5074106;28;20045;-26
2023/10/27 07:11:46;;;;;;;32.65;18.40;;;9.20;99.90;;;;;;5075576;28;20053;-26
2023/10/27 07:14:14;;;;;;;28.02;17.55;;;9.20;99.90;;;;;;5074363;28;20056;-26
2023/10/27 07:16:43;;;;;;;29.15;18.50;;;9.30;99.90;;;;;;5073985;28;20087;-26
2023/10/27 07:19:09;;;;;;;26.95;16.90;;;9.30;99.90;;;;;;5074407;28;20402;-26
2023/10/27 07:21:35;;;;;;;29.05;17.23;;;9.30;99.90;;;;;;5074136;28;20059;-26
2023/10/27 07:24:01;;;;;;;32.50;18.23;;;9.40;99.90;;;;;;5075109;28;20055;-26
2023/10/27 07:26:27;;;;;;;29.02;18.13;;;9.40;99.90;;;;;;5057501;28;20049;-26
2023/10/27 07:28:53;;;;;;;28.67;17.15;;;9.40;99.90;;;;;;5073799;28;20073;-26
2023/10/27 07:31:19;;;;;;;24.20;17.08;;;9.30;99.90;;;;;;5073997;28;20131;-27
2023/10/27 07:33:45;;;;;;;24.73;16.83;;;9.40;99.90;;;;;;5073811;28;20056;-26
2023/10/27 07:36:11;;;;;;;23.13;16.20;;;9.40;99.90;;;;;;5074893;28;20470;-26
2023/10/27 07:38:37;;;;;;;24.27;16.77;;;9.40;99.90;;;;;;5073669;28;20470;-26
2023/10/27 07:41:03;;;;;;;24.75;16.90;;;9.50;99.90;;;;;;5074175;28;20106;-27
2023/10/27 07:43:31;;;;;;;22.92;16.40;;;9.50;99.90;;;;;;5075359;28;20044;-26
2023/10/27 07:45:56;;;;;;;21.55;15.82;;;9.60;99.90;;;;;;5075571;28;20378;-26
2023/10/27 07:48:23;;;;;;;21.88;15.05;;;9.50;99.90;;;;;;5074504;28;20047;-26
2023/10/27 07:50:49;;;;;;;21.42;15.73;;;9.60;99.90;;;;;;5073660;28;20482;-27
2023/10/27 07:53:15;;;;;;;22.88;16.65;;;9.60;99.90;;;;;;5074239;28;20349;-26
2023/10/27 07:55:41;;;;;;;20.45;14.07;;;9.70;99.90;;;;;;5073625;28;20070;-26
2023/10/27 07:58:07;;;;;;;19.42;14.00;;;9.70;99.90;;;;;;5075047;28;20474;-26
2023/10/27 08:00:32;;;;;;;18.98;13.82;;;9.80;99.90;;;;;;5074448;28;20044;-26
2023/10/27 08:02:59;;;;;;;19.80;13.70;;;9.80;99.90;;;;;;5073449;28;20050;-26
2023/10/27 08:05:25;;;;;;;17.25;13.85;;;9.80;99.90;;;;;;5056565;28;20056;-26
2023/10/27 08:07:51;;;;;;;18.98;14.18;;;9.80;99.90;;;;;;5074785;28;20121;-26
2023/10/27 08:10:19;;;;;;;16.67;13.32;;;9.80;99.90;;;;;;5073258;28;20054;-26
2023/10/27 08:12:45;;;;;;;18.73;14.65;;;9.90;99.90;;;;;;5073994;28;20056;-26
2023/10/27 08:15:11;;;;;;;16.75;14.40;;;9.90;99.90;;;;;;5074689;28;20051;-26
2023/10/27 08:17:37;;;;;;;20.20;14.95;;;10.00;99.90;;;;;;5074167;28;20080;-26
2023/10/27 08:20:04;;;;;;;16.20;13.77;;;10.00;99.90;;;;;;5074099;28;20044;-27
2023/10/27 08:22:32;;;;;;;17.90;15.02;;;10.00;99.90;;;;;;5074060;28;20044;-28
2023/10/27 08:24:58;;;;;;;16.45;14.50;;;10.10;99.90;;;;;;5073878;28;20056;-27
2023/10/27 08:27:24;;;;;;;18.10;14.27;;;10.10;99.90;;;;;;5074830;28;20045;-26
2023/10/27 08:29:54;;;;;;;18.27;13.88;;;10.20;99.90;;;;;;5072898;28;20052;-26
2023/10/27 08:32:21;;;;;;;14.65;12.75;;;10.30;99.90;;;;;;5072691;28;20049;-26
2023/10/27 08:34:47;;;;;;;16.55;13.23;;;10.40;99.90;;;;;;5073517;28;20071;-26
2023/10/27 08:37:13;;;;;;;14.65;13.05;;;10.40;99.90;;;;;;5072884;28;20051;-26
2023/10/27 08:39:40;;;;;;;15.35;12.07;;;10.50;99.90;;;;;;5073797;28;20090;-27
2023/10/27 08:42:07;;;;;;;15.27;12.85;;;10.50;99.90;;;;;;5074582;28;20114;-26
2023/10/27 08:44:34;;;;;;;13.43;12.02;;;10.60;99.90;;;;;;5073045;28;20079;-26
2023/10/27 08:47:00;;;;;;;15.93;12.88;;;10.70;99.90;;;;;;5074121;28;20049;-26
2023/10/27 08:49:27;;;;;;;15.40;11.75;;;10.70;99.90;;;;;;5074209;28;20123;-27
2023/10/27 08:51:52;;;;;;;11.88;10.68;;;10.70;99.90;;;;;;5073610;28;20036;-26
2023/10/27 08:54:19;;;;;;;12.40;10.70;;;10.70;99.90;;;;;;5073671;28;20046;-26
2023/10/27 08:56:45;;;;;;;12.90;10.73;;;10.70;99.90;;;;;;5074266;28;20053;-26
2023/10/27 08:59:12;;;;;;;11.05;9.77;;;10.60;99.90;;;;;;5072906;28;20048;-26
2023/10/27 09:01:38;;;;;;;12.82;10.40;;;10.60;99.90;;;;;;5072496;28;20056;-27
2023/10/27 09:04:09;;;;;;;11.93;10.15;;;10.60;99.90;;;;;;5073260;28;20452;-26
2023/10/27 09:06:36;;;;;;;13.75;9.90;;;10.50;99.90;;;;;;5073463;28;20048;-26
2023/10/27 09:09:05;;;;;;;11.70;10.50;;;10.50;99.90;;;;;;5072037;28;20040;-27
2023/10/27 09:11:41;;;;;;;11.65;9.52;;;10.50;99.90;;;;;;5072600;28;20141;-26
2023/10/27 09:14:23;;;;;;;13.25;10.43;;;10.50;99.90;;;;;;5072306;28;20056;-27
2023/10/27 09:16:51;;;;;;;11.18;9.25;;;10.50;99.90;;;;;;5056611;28;20048;-28
2023/10/27 09:19:28;;;;;;;10.25;9.23;;;10.50;99.90;;;;;;5072710;28;20055;-26
2023/10/27 09:21:54;;;;;;;9.50;8.52;;;10.30;99.90;;;;;;5073378;28;20482;-26
2023/10/27 09:24:30;;;;;;;9.77;8.35;;;10.30;99.90;;;;;;5073442;28;20055;-26
2023/10/27 09:26:59;;;;;;;9.27;8.02;;;10.30;99.90;;;;;;5072319;28;20040;-29
2023/10/27 09:29:26;;;;;;;8.65;7.70;;;10.40;99.90;;;;;;5073804;28;20082;-26
2023/10/27 09:31:52;;;;;;;8.77;7.85;;;10.40;99.90;;;;;;5073341;28;20044;-26
2023/10/27 09:34:23;;;;;;;9.45;7.60;;;10.50;99.90;;;;;;5072029;28;20131;-26
2023/10/27 09:36:52;;;;;;;7.40;6.70;;;10.50;99.90;;;;;;5073315;28;20041;-26
2023/10/27 09:39:20;;;;;;;10.88;7.72;;;10.60;99.90;;;;;;5073773;28;20052;-26
2023/10/27 09:41:47;;;;;;;9.23;7.57;;;10.70;99.90;;;;;;5073537;28;20059;-26
2023/10/27 09:44:19;;;;;;;7.07;6.38;;;10.70;99.90;;;;;;5072893;28;20506;-26
2023/10/27 09:46:54;;;;;;;7.32;6.63;;;10.70;99.90;;;;;;5073189;28;20127;-26
2023/10/27 09:49:28;;;;;;;7.43;6.40;;;10.60;99.90;;;;;;5073336;28;20084;-26
2023/10/27 09:52:01;;;;;;;7.47;6.68;;;10.60;99.90;;;;;;5073427;28;20049;-26
2023/10/27 09:54:33;;;;;;;7.53;6.07;;;10.60;99.90;;;;;;5073804;28;20052;-28
2023/10/27 09:57:04;;;;;;;7.57;6.47;;;10.60;99.90;;;;;;5073005;28;20283;-26
2023/10/27 09:59:30;;;;;;;7.57;6.78;;;10.60;99.90;;;;;;5073654;28;20052;-26
2023/10/27 10:02:05;;;;;;;7.07;6.38;;;10.60;99.90;;;;;;5071982;28;20087;-26
2023/10/27 10:04:52;;;;;;;9.20;6.50;;;10.70;99.90;;;;;;5073307;28;20059;-26
2023/10/27 10:07:42;;;;;;;8.13;7.32;;;10.80;99.90;;;;;;5073496;28;20099;-27
2023/10/27 10:10:18;;;;;;;7.60;6.60;;;10.90;99.90;;;;;;5073479;28;20502;-26
2023/10/27 10:12:57;;;;;;;8.75;6.32;;;11.00;99.90;;;;;;5073963;28;20390;-27
2023/10/27 10:15:23;;;;;;;7.57;6.80;;;11.20;99.90;;;;;;5076629;28;20056;-27
2023/10/27 10:17:49;;;;;;;6.82;5.40;;;11.40;99.90;;;;;;5076707;28;20516;-26
2023/10/27 10:20:15;;;;;;;7.43;6.03;;;11.50;99.90;;;;;;5075281;28;20087;-27
2023/10/27 10:22:44;;;;;;;6.25;5.50;;;11.60;99.90;;;;;;5075257;28;20080;-27
2023/10/27 10:25:21;;;;;;;5.60;4.90;;;11.60;99.90;;;;;;5076300;28;20388;-27
2023/10/27 10:28:16;;;;;;;6.55;5.70;;;11.80;99.90;;;;;;5076510;28;20052;-27
2023/10/27 10:31:09;;;;;;;6.10;5.35;;;11.80;99.90;;;;;;5104174;28;20056;-27
2023/10/27 10:33:37;;;;;;;5.63;4.68;;;11.80;99.90;;;;;;5075843;28;20437;-27
2023/10/27 10:36:14;;;;;;;5.68;5.00;;;11.90;99.90;;;;;;5075701;28;20521;-27
2023/10/27 10:38:43;;;;;;;5.25;4.75;;;11.90;99.90;;;;;;5058105;28;20041;-27
2023/10/27 10:41:09;;;;;;;5.80;5.20;;;11.90;99.90;;;;;;5076022;28;20059;-27
2023/10/27 10:43:39;;;;;;;6.57;5.22;;;11.80;99.90;;;;;;5076037;28;20051;-27
2023/10/27 10:46:12;;;;;;;5.78;5.05;;;11.80;99.90;;;;;;5074980;28;20053;-26
2023/10/27 10:48:42;;;;;;;;;;;11.70;99.90;;;;;;5076869;28;20048;-27
2023/10/27 10:51:16;;;;;;;5.80;4.60;;;11.60;99.90;;;;;;5076162;28;20267;-27
2023/10/27 10:53:43;;;;;;;6.30;5.63;;;11.50;99.90;;;;;;5042498;28;20499;-26
2023/10/27 10:56:09;;;;;;;5.95;5.25;;;11.40;99.90;;;;;;5075784;28;20058;-26
2023/10/27 10:58:37;;;;;;;6.05;5.45;;;11.40;99.90;;;;;;5076315;28;20044;-26
2023/10/27 11:01:04;;;;;;;6.40;5.45;;;11.40;99.90;;;;;;5075664;28;20048;-26
2023/10/27 11:03:36;;;;;;;5.47;4.95;;;11.30;99.90;;;;;;5074686;28;20048;-26
2023/10/27 11:06:05;;;;;;;6.73;6.00;;;11.30;99.90;;;;;;5075855;28;20045;-27
2023/10/27 11:08:34;;;;;;;6.93;5.80;;;11.20;99.90;;;;;;5075523;28;20086;-26
2023/10/27 11:11:04;;;;;;;10.05;6.60;;;11.30;99.90;;;;;;5075478;28;20467;-26
2023/10/27 11:13:33;;;;;;;9.95;7.63;;;11.20;99.90;;;;;;5076092;28;20135;-26
2023/10/27 11:16:00;;;;;;;9.77;6.20;;;11.30;99.90;;;;;;5075389;28;20090;-26
2023/10/27 11:18:31;;;;;;;10.48;6.45;;;11.30;99.90;;;;;;5074346;28;20052;-27
2023/10/27 11:20:57;;;;;;;7.50;6.70;;;11.40;99.90;;;;;;5074577;28;20059;-27
2023/10/27 11:23:29;;;;;;;8.63;6.38;;;11.40;99.90;;;;;;5074870;28;20059;-26
2023/10/27 11:26:05;;;;;;;7.63;6.60;;;11.40;99.90;;;;;;5075813;28;20053;-26
2023/10/27 11:28:40;;;;;;;7.60;6.25;;;11.50;99.90;;;;;;5075970;28;20123;-27
2023/10/27 11:31:20;;;;;;;8.00;6.43;;;11.50;99.90;;;;;;5074201;28;20044;-26
2023/10/27 11:33:59;;;;;;;7.85;7.00;;;11.40;99.90;;;;;;5075400;28;20090;-26
2023/10/27 11:36:32;;;;;;;9.35;6.60;;;11.40;99.90;;;;;;5074835;28;20052;-26
2023/10/27 11:39:13;;;;;;;9.23;6.97;;;11.40;99.90;;;;;;5074950;28;20596;-26
2023/10/27 11:41:39;;;;;;;8.68;7.30;;;11.30;99.90;;;;;;5074889;28;20132;-26
2023/10/27 11:44:05;;;;;;;13.75;7.80;;;11.30;99.90;;;;;;5073842;28;20479;-26
2023/10/27 11:46:33;;;;;;;10.02;7.88;;;11.30;99.90;;;;;;5075299;28;20132;-26
2023/10/27 11:48:59;;;;;;;10.57;7.50;;;11.20;99.90;;;;;;5074338;28;20547;-26
2023/10/27 11:51:25;;;;;;;9.00;7.57;;;11.30;99.90;;;;;;5074663;28;20127;-26
2023/10/27 11:53:51;;;;;;;11.25;8.75;;;11.30;99.90;;;;;;5074567;28;20403;-26
2023/10/27 11:56:17;;;;;;;11.80;8.98;;;11.30;99.90;;;;;;5057015;28;20398;-26
2023/10/27 11:58:43;;;;;;;13.70;9.65;;;11.30;99.90;;;;;;5073565;28;20048;-26
2023/10/27 12:01:09;;;;;;;12.77;9.10;;;11.20;99.90;;;;;;5073325;28;20067;-26
2023/10/27 12:03:36;;;;;;;10.50;8.30;;;11.10;99.90;;;;;;5074382;28;20042;-27
2023/10/27 12:06:02;;;;;;;10.63;8.43;;;11.10;99.90;;;;;;5073269;28;20048;-28
2023/10/27 12:08:28;;;;;;;11.20;9.30;;;11.10;99.90;;;;;;5073524;28;20053;-26
2023/10/27 12:10:54;;;;;;;12.80;8.50;;;11.00;99.90;;;;;;5074290;28;20067;-26
2023/10/27 12:13:21;;;;;;;12.57;8.57;;;11.00;99.90;;;;;;5074096;28;20495;-26
2023/10/27 12:15:47;;;;;;;12.65;9.93;;;11.00;99.90;;;;;;5073054;28;20056;-27
2023/10/27 12:18:19;;;;;;;12.18;9.40;;;11.00;99.90;;;;;;5074186;28;20123;-26
2023/10/27 12:20:45;;;;;;;11.02;9.10;;;11.00;99.90;;;;;;5074493;28;20040;-26
2023/10/27 12:23:11;;;;;;;13.05;10.05;;;11.00;99.90;;;;;;5074153;28;20471;-27
2023/10/27 12:25:37;;;;;;;15.52;10.27;;;11.00;99.90;;;;;;5072890;28;20131;-27
2023/10/27 12:28:04;;;;;;;12.80;9.98;;;11.10;99.90;;;;;;5074758;28;20048;-26
2023/10/27 12:30:30;;;;;;;15.05;9.98;;;11.10;99.90;;;;;;5073849;28;20045;-27
2023/10/27 12:32:57;;;;;;;12.38;10.45;;;11.10;99.90;;;;;;5073967;28;20055;-27
2023/10/27 12:35:25;;;;;;;12.38;10.15;;;11.10;99.90;;;;;;5073714;28;20387;-26
2023/10/27 12:37:55;;;;;;;11.65;9.35;;;11.00;99.90;;;;;;5073795;28;20044;-27
2023/10/27 12:40:22;;;;;;;12.35;9.98;;;11.10;99.90;;;;;;5074311;28;20048;-28
2023/10/27 12:42:48;;;;;;;11.85;9.85;;;11.00;99.90;;;;;;5073106;28;20059;-26